createdAt,value
2022-10-13T00:00:48.152Z,17.98
2022-10-13T00:03:15.739Z,14.80
2022-10-13T00:05:44.736Z,18.90
2022-10-13T00:08:12.754Z,17.20
2022-10-13T00:10:44.281Z,16.70
2022-10-13T00:13:11.835Z,14.80
2022-10-13T00:15:40.514Z,16.23
2022-10-13T00:18:07.869Z,14.68
2022-10-13T00:20:35.127Z,13.23
2022-10-13T00:23:02.080Z,18.33
2022-10-13T00:25:28.816Z,19.63
2022-10-13T00:27:55.579Z,20.27
2022-10-13T00:30:23.271Z,21.33
2022-10-13T00:32:50.521Z,17.88
2022-10-13T00:35:17.313Z,15.85
2022-10-13T00:37:44.068Z,18.45
2022-10-13T00:40:11.379Z,15.52
2022-10-13T00:42:41.186Z,17.27
2022-10-13T00:45:20.202Z,19.85
2022-10-13T00:47:50.942Z,19.17
2022-10-13T00:50:32.075Z,17.15
2022-10-13T00:53:01.159Z,18.52
2022-10-13T00:55:31.168Z,20.30
2022-10-13T00:58:05.247Z,17.55
2022-10-13T01:00:32.812Z,16.65
2022-10-13T01:03:00.264Z,19.55
2022-10-13T01:05:27.218Z,18.55
2022-10-13T01:07:56.762Z,17.15
2022-10-13T01:10:35.583Z,15.63
2022-10-13T01:13:22.426Z,18.30
2022-10-13T01:18:55.546Z,14.95
2022-10-13T01:21:51.261Z,16.80
2022-10-13T01:24:40.397Z,18.80
2022-10-13T01:27:28.129Z,15.45
2022-10-13T01:30:15.086Z,15.70
2022-10-13T01:33:00.532Z,19.88
2022-10-13T01:35:56.965Z,15.85
2022-10-13T01:38:34.666Z,19.40
2022-10-13T01:41:46.538Z,17.60
2022-10-13T01:44:22.574Z,15.10
2022-10-13T01:46:56.098Z,18.55
2022-10-13T01:49:31.025Z,19.17
2022-10-13T01:52:03.769Z,21.77
2022-10-13T01:54:30.626Z,16.90
2022-10-13T01:56:59.496Z,18.55
2022-10-13T01:59:29.153Z,17.88
2022-10-13T02:02:24.056Z,17.75
2022-10-13T02:04:56.270Z,16.02
2022-10-13T02:07:36.613Z,14.80
2022-10-13T02:10:17.616Z,14.85
2022-10-13T02:13:02.671Z,15.35
2022-10-13T02:15:40.479Z,15.95
2022-10-13T02:18:10.220Z,15.35
2022-10-13T02:20:37.313Z,15.48
2022-10-13T02:23:12.543Z,17.13
2022-10-13T02:25:39.977Z,16.23
2022-10-13T02:28:07.466Z,17.92
2022-10-13T02:30:42.738Z,21.63
2022-10-13T02:33:09.895Z,15.40
2022-10-13T02:35:37.646Z,16.35
2022-10-13T02:38:04.460Z,20.05
2022-10-13T02:40:31.489Z,18.02
2022-10-13T02:42:58.278Z,14.68
2022-10-13T02:45:25.134Z,15.65
2022-10-13T02:47:55.027Z,18.13
2022-10-13T02:50:21.805Z,17.35
2022-10-13T02:55:17.411Z,14.13
2022-10-13T03:02:40.125Z,15.07
2022-10-13T03:05:07.085Z,15.88
2022-10-13T03:07:33.816Z,17.67
2022-10-13T03:10:00.543Z,13.68
2022-10-13T03:12:27.496Z,14.30
2022-10-13T03:14:54.176Z,17.52
2022-10-13T03:17:20.908Z,16.15
2022-10-13T03:19:48.231Z,15.27
2022-10-13T03:22:18.476Z,15.15
2022-10-13T03:24:45.520Z,18.00
2022-10-13T03:27:12.289Z,14.52
2022-10-13T03:29:39.076Z,15.60
2022-10-13T03:32:05.917Z,16.17
2022-10-13T03:34:32.732Z,17.65
2022-10-13T03:36:59.473Z,12.70
2022-10-13T03:39:26.685Z,18.52
2022-10-13T03:41:53.433Z,17.27
2022-10-13T03:44:20.337Z,25.23
2022-10-13T03:46:47.112Z,18.50
2022-10-13T03:49:13.925Z,15.68
2022-10-13T03:51:40.855Z,14.63
2022-10-13T03:54:07.695Z,19.00
2022-10-13T03:56:34.425Z,15.80
2022-10-13T03:59:01.572Z,18.05
2022-10-13T04:01:30.134Z,15.70
2022-10-13T04:03:58.305Z,14.02
2022-10-13T04:06:26.222Z,18.05
2022-10-13T04:08:54.466Z,17.42
2022-10-13T04:11:22.011Z,17.45
2022-10-13T04:13:51.820Z,15.45
2022-10-13T04:16:21.876Z,21.20
2022-10-13T04:19:05.443Z,14.38
2022-10-13T04:21:34.614Z,17.17
2022-10-13T04:24:01.942Z,15.13
2022-10-13T04:26:31.357Z,15.02
2022-10-13T04:28:59.028Z,14.68
2022-10-13T04:31:29.040Z,18.83
2022-10-13T04:33:55.894Z,16.15
2022-10-13T04:36:23.274Z,16.90
2022-10-13T04:38:51.067Z,15.38
2022-10-13T04:41:19.174Z,22.52
2022-10-13T04:43:53.892Z,15.82
2022-10-13T04:46:24.170Z,15.23
2022-10-13T04:48:51.890Z,16.30
2022-10-13T04:51:23.732Z,15.52
2022-10-13T04:53:58.041Z,17.20
2022-10-13T04:56:25.574Z,17.35
2022-10-13T04:58:52.781Z,18.05
2022-10-13T05:01:22.512Z,17.80
2022-10-13T05:03:54.404Z,16.63
2022-10-13T05:06:25.459Z,20.55
2022-10-13T05:08:56.044Z,16.48
2022-10-13T05:11:24.261Z,17.27
2022-10-13T05:13:51.288Z,18.10
2022-10-13T05:16:19.162Z,11.55
2022-10-13T05:18:45.857Z,11.00
2022-10-13T05:21:15.566Z,13.23
2022-10-13T05:23:42.806Z,16.35
2022-10-13T05:26:17.565Z,12.27
2022-10-13T05:28:45.027Z,10.68
2022-10-13T05:31:18.013Z,11.38
2022-10-13T05:33:45.732Z,12.25
2022-10-13T05:36:19.843Z,12.90
2022-10-13T05:38:53.971Z,12.40
2022-10-13T05:41:23.065Z,14.02
2022-10-13T05:43:52.982Z,12.48
2022-10-13T05:46:19.722Z,10.70
2022-10-13T05:48:46.576Z,10.23
2022-10-13T05:51:17.929Z,11.00
2022-10-13T05:53:55.438Z,11.68
2022-10-13T05:56:29.846Z,12.85
2022-10-13T05:59:04.559Z,13.07
2022-10-13T06:01:35.118Z,11.15
2022-10-13T06:04:06.265Z,14.40
2022-10-13T06:06:33.105Z,14.25
2022-10-13T06:09:01.011Z,11.43
2022-10-13T06:11:28.145Z,15.95
2022-10-13T06:13:54.865Z,12.45
2022-10-13T06:16:22.015Z,10.80
2022-10-13T06:18:48.922Z,12.60
2022-10-13T06:21:17.278Z,13.82
2022-10-13T06:23:44.013Z,18.88
2022-10-13T06:26:10.758Z,13.35
2022-10-13T06:28:38.430Z,13.32
2022-10-13T06:31:06.630Z,11.73
2022-10-13T06:33:34.313Z,12.38
2022-10-13T06:36:05.326Z,13.60
2022-10-13T06:38:33.204Z,13.27
2022-10-13T06:41:04.535Z,11.75
2022-10-13T06:43:39.630Z,10.98
2022-10-13T06:46:10.498Z,12.85
2022-10-13T06:48:37.361Z,11.30
2022-10-13T06:51:09.562Z,10.65
2022-10-13T06:53:36.533Z,13.35
2022-10-13T06:56:06.369Z,12.75
2022-10-13T06:58:35.059Z,11.95
2022-10-13T07:01:01.853Z,12.20
2022-10-13T07:03:28.659Z,12.82
2022-10-13T07:05:59.751Z,13.13
2022-10-13T07:08:26.438Z,11.32
2022-10-13T07:10:53.170Z,12.55
2022-10-13T07:15:46.589Z,12.93
2022-10-13T07:18:13.280Z,12.02
2022-10-13T07:20:40.006Z,14.82
2022-10-13T07:23:06.734Z,12.60
2022-10-13T07:25:33.433Z,15.43
2022-10-13T07:28:00.285Z,11.52
2022-10-13T07:30:27.384Z,12.18
2022-10-13T07:32:54.202Z,12.63
2022-10-13T07:35:24.756Z,12.75
2022-10-13T07:37:54.957Z,11.27
2022-10-13T07:40:21.721Z,11.00
2022-10-13T07:42:49.099Z,12.18
2022-10-13T07:45:15.970Z,12.23
2022-10-13T07:47:42.674Z,13.30
2022-10-13T07:50:10.485Z,11.10
2022-10-13T07:52:37.327Z,12.43
2022-10-13T07:55:04.501Z,13.52
2022-10-13T07:57:31.222Z,13.23
2022-10-13T07:59:58.032Z,14.80
2022-10-13T08:02:24.826Z,13.13
2022-10-13T08:04:51.584Z,14.85
2022-10-13T08:07:19.022Z,12.75
2022-10-13T08:09:46.630Z,16.05
2022-10-13T08:12:13.562Z,14.15
2022-10-13T08:14:40.423Z,14.13
2022-10-13T08:17:08.378Z,12.95
2022-10-13T08:19:35.154Z,13.00
2022-10-13T08:22:01.992Z,12.65
2022-10-13T08:24:29.484Z,12.23
2022-10-13T08:26:56.539Z,13.27
2022-10-13T08:29:24.367Z,13.90
2022-10-13T08:31:55.213Z,13.57
2022-10-13T08:34:23.778Z,10.43
2022-10-13T08:36:53.360Z,11.85
2022-10-13T08:39:21.985Z,19.67
2022-10-13T08:41:49.088Z,14.55
2022-10-13T08:47:43.364Z,16.13
2022-10-13T08:50:21.228Z,16.98
2022-10-13T08:53:07.434Z,16.80
2022-10-13T08:55:50.028Z,15.77
2022-10-13T08:58:22.442Z,16.05
2022-10-13T09:01:00.401Z,11.85
2022-10-13T09:03:29.287Z,13.20
2022-10-13T09:06:14.385Z,14.40
2022-10-13T09:08:54.144Z,12.98
2022-10-13T09:11:21.258Z,13.75
2022-10-13T09:13:48.325Z,12.23
2022-10-13T09:16:15.393Z,13.32
2022-10-13T09:18:42.085Z,15.27
2022-10-13T09:21:25.957Z,14.70
2022-10-13T09:24:05.210Z,11.65
2022-10-13T09:26:37.450Z,14.80
2022-10-13T09:29:16.239Z,13.63
2022-10-13T09:31:43.322Z,14.60
2022-10-13T09:34:19.837Z,13.30
2022-10-13T09:37:04.209Z,15.02
2022-10-13T09:39:33.133Z,14.10
2022-10-13T09:42:19.248Z,12.90
2022-10-13T09:44:47.053Z,12.02
2022-10-13T09:47:21.650Z,12.23
2022-10-13T09:50:16.674Z,11.15
2022-10-13T09:52:45.976Z,10.85
2022-10-13T09:55:32.144Z,11.80
2022-10-13T10:00:34.230Z,12.70
2022-10-13T10:03:23.813Z,11.63
2022-10-13T10:05:56.107Z,11.15
2022-10-13T10:08:33.954Z,10.52
2022-10-13T10:11:20.256Z,12.75
2022-10-13T10:13:49.566Z,10.07
2022-10-13T10:16:31.228Z,9.60
2022-10-13T10:19:18.022Z,10.02
2022-10-13T10:24:36.082Z,10.05
2022-10-13T10:27:26.403Z,9.27
2022-10-13T10:30:01.808Z,12.77
2022-10-13T10:32:34.424Z,11.95
2022-10-13T10:35:18.850Z,10.52
2022-10-13T10:37:51.430Z,11.35
2022-10-13T10:40:31.106Z,11.45
2022-10-13T10:43:35.614Z,11.55
2022-10-13T10:46:02.886Z,12.25
2022-10-13T10:48:37.901Z,10.30
2022-10-13T10:51:08.475Z,11.05
2022-10-13T10:53:45.243Z,11.80
2022-10-13T10:56:32.302Z,13.23
2022-10-13T10:59:26.633Z,9.05
2022-10-13T11:02:08.603Z,8.40
2022-10-13T11:04:38.272Z,10.80
2022-10-13T11:07:10.257Z,12.90
2022-10-13T11:09:42.723Z,11.02
2022-10-13T11:12:45.441Z,11.68
2022-10-13T11:15:27.475Z,11.57
2022-10-13T11:17:54.516Z,10.45
2022-10-13T11:20:21.214Z,11.63
2022-10-13T11:23:00.141Z,9.55
2022-10-13T11:25:43.155Z,10.98
2022-10-13T11:28:42.330Z,8.95
2022-10-13T11:31:14.426Z,11.82
2022-10-13T11:33:54.090Z,10.55
2022-10-13T11:36:48.582Z,11.13
2022-10-13T11:39:21.339Z,9.13
2022-10-13T11:42:11.412Z,8.95
2022-10-13T11:44:55.909Z,11.18
2022-10-13T11:48:00.202Z,13.68
2022-10-13T11:50:48.511Z,10.18
2022-10-13T11:53:33.777Z,12.75
2022-10-13T11:56:03.728Z,10.60
2022-10-13T11:58:32.385Z,12.48
2022-10-13T12:01:03.129Z,11.98
2022-10-13T12:03:31.506Z,11.40
2022-10-13T12:06:05.256Z,15.63
2022-10-13T12:08:36.647Z,15.23
2022-10-13T12:11:07.508Z,14.80
2022-10-13T12:13:35.938Z,16.20
2022-10-13T12:16:06.577Z,16.88
2022-10-13T12:18:36.622Z,13.02
2022-10-13T12:21:10.575Z,11.52
2022-10-13T12:23:38.562Z,13.13
2022-10-13T12:26:05.472Z,13.23
2022-10-13T12:29:01.892Z,12.65
2022-10-13T12:31:40.322Z,12.82
2022-10-13T12:34:27.608Z,15.90
2022-10-13T12:36:59.229Z,13.88
2022-10-13T12:39:28.858Z,13.43
2022-10-13T12:41:57.295Z,13.15
2022-10-13T12:44:26.597Z,13.68
2022-10-13T12:46:56.272Z,14.52
2022-10-13T12:49:31.977Z,12.95
2022-10-13T12:52:14.218Z,12.32
2022-10-13T12:54:52.304Z,14.40
2022-10-13T12:57:37.927Z,13.63
2022-10-13T13:00:20.315Z,13.55
2022-10-13T13:02:59.241Z,13.98
2022-10-13T13:05:38.760Z,13.73
2022-10-13T13:08:23.017Z,12.68
2022-10-13T13:10:57.928Z,11.73
2022-10-13T13:13:25.325Z,13.13
2022-10-13T13:15:52.711Z,11.02
2022-10-13T13:18:36.591Z,12.98
2022-10-13T13:21:08.663Z,14.57
2022-10-13T13:23:36.004Z,14.98
2022-10-13T13:26:12.395Z,21.33
2022-10-13T13:28:47.842Z,16.92
2022-10-13T13:31:16.947Z,15.27
2022-10-13T13:33:43.967Z,14.30
2022-10-13T13:36:25.030Z,18.05
2022-10-13T13:38:52.978Z,17.42
2022-10-13T13:41:20.122Z,16.60
2022-10-13T13:43:46.901Z,14.55
2022-10-13T13:46:20.212Z,17.30
2022-10-13T13:48:47.078Z,13.15
2022-10-13T13:51:13.881Z,15.77
2022-10-13T13:53:40.934Z,14.60
2022-10-13T13:56:15.671Z,15.63
2022-10-13T13:58:42.648Z,15.30
2022-10-13T14:01:10.209Z,12.10
2022-10-13T14:03:37.042Z,16.00
2022-10-13T14:06:06.354Z,13.93
2022-10-13T14:08:35.169Z,15.57
2022-10-13T14:11:06.312Z,11.70
2022-10-13T14:13:33.864Z,15.07
2022-10-13T14:16:02.000Z,12.35
2022-10-13T14:18:29.591Z,13.05
2022-10-13T14:20:56.423Z,15.18
2022-10-13T14:23:23.134Z,14.02
2022-10-13T14:25:49.887Z,13.57
2022-10-13T14:28:18.510Z,12.52
2022-10-13T14:30:45.510Z,13.20
2022-10-13T14:33:12.383Z,13.10
2022-10-13T14:35:39.117Z,14.98
2022-10-13T14:38:06.028Z,13.20
2022-10-13T14:40:33.889Z,14.57
2022-10-13T14:43:00.699Z,13.38
2022-10-13T14:45:27.389Z,15.13
2022-10-13T14:47:54.133Z,13.10
2022-10-13T14:50:20.887Z,15.73
2022-10-13T14:52:51.998Z,17.13
2022-10-13T14:55:18.686Z,13.25
2022-10-13T14:57:45.461Z,15.07
2022-10-13T15:00:14.238Z,13.13
2022-10-13T15:02:40.990Z,14.75
2022-10-13T15:05:08.063Z,15.07
2022-10-13T15:07:38.940Z,12.55
2022-10-13T15:10:08.145Z,11.23
2022-10-13T15:12:34.929Z,15.23
2022-10-13T15:15:02.017Z,11.75
2022-10-13T15:17:30.919Z,12.20
2022-10-13T15:19:57.683Z,11.45
2022-10-13T15:22:24.532Z,11.20
2022-10-13T15:24:51.642Z,12.63
2022-10-13T15:27:18.433Z,15.30
2022-10-13T15:29:45.142Z,12.88
2022-10-13T15:32:18.136Z,12.50
2022-10-13T15:34:49.537Z,11.95
2022-10-13T15:37:16.358Z,13.77
2022-10-13T15:39:43.152Z,10.50
2022-10-13T15:42:11.383Z,12.98
2022-10-13T15:45:08.288Z,12.52
2022-10-13T15:47:24.975Z,13.73
2022-10-13T15:49:51.742Z,13.40
2022-10-13T15:52:18.743Z,13.43
2022-10-13T15:54:45.601Z,15.02
2022-10-13T15:57:12.391Z,13.25
2022-10-13T15:59:39.158Z,13.93
2022-10-13T16:02:05.878Z,13.52
2022-10-13T16:04:37.249Z,12.05
2022-10-13T16:07:04.516Z,12.32
2022-10-13T16:09:31.530Z,12.45
2022-10-13T16:11:58.226Z,12.85
2022-10-13T16:14:24.955Z,12.25
2022-10-13T16:16:51.749Z,12.60
2022-10-13T16:19:18.436Z,14.70
2022-10-13T16:21:46.716Z,14.38
2022-10-13T16:24:14.019Z,14.38
2022-10-13T16:26:40.866Z,12.95
2022-10-13T16:29:07.595Z,12.30
2022-10-13T16:31:35.302Z,10.85
2022-10-13T16:34:02.300Z,13.90
2022-10-13T16:36:29.019Z,13.38
2022-10-13T16:38:55.818Z,12.10
2022-10-13T16:41:23.737Z,11.80
2022-10-13T16:43:50.765Z,12.77
2022-10-13T16:46:19.071Z,12.75
2022-10-13T16:51:15.957Z,13.95
2022-10-13T16:53:43.289Z,13.32
2022-10-13T16:56:10.108Z,13.30
2022-10-13T16:58:36.865Z,11.38
2022-10-13T17:01:08.766Z,14.77
2022-10-13T17:03:39.806Z,13.52
2022-10-13T17:06:07.058Z,11.60
2022-10-13T17:08:34.029Z,12.63
2022-10-13T17:11:03.021Z,14.82
2022-10-13T17:13:31.889Z,12.82
2022-10-13T17:15:59.485Z,14.38
2022-10-13T17:18:27.788Z,11.95
2022-10-13T17:23:26.159Z,14.70
2022-10-13T17:25:53.982Z,14.25
2022-10-13T17:28:21.282Z,13.27
2022-10-13T17:30:59.450Z,14.48
2022-10-13T17:33:27.899Z,13.82
2022-10-13T17:36:03.540Z,14.60
2022-10-13T17:38:31.002Z,13.73
2022-10-13T17:41:02.578Z,12.68
2022-10-13T17:43:30.129Z,14.52
2022-10-13T17:46:34.489Z,13.52
2022-10-13T17:48:57.437Z,13.90
2022-10-13T17:51:24.932Z,14.18
2022-10-13T17:53:52.320Z,12.05
2022-10-13T17:56:24.461Z,16.20
2022-10-13T17:58:51.623Z,12.80
2022-10-13T18:01:21.983Z,11.98
2022-10-13T18:03:53.753Z,12.02
2022-10-13T18:06:36.845Z,12.40
2022-10-13T18:09:06.146Z,11.73
2022-10-13T18:11:33.914Z,12.10
2022-10-13T18:14:00.678Z,12.85
2022-10-13T18:16:27.387Z,14.60
2022-10-13T18:18:54.434Z,11.38
2022-10-13T18:21:23.984Z,12.77
2022-10-13T18:23:53.533Z,11.98
2022-10-13T18:26:20.622Z,12.00
2022-10-13T18:28:48.900Z,10.43
2022-10-13T18:31:29.869Z,12.27
2022-10-13T18:34:02.365Z,11.10
2022-10-13T18:36:38.194Z,11.80
2022-10-13T18:39:19.622Z,12.55
2022-10-13T18:41:48.612Z,10.50
2022-10-13T18:44:16.182Z,9.20
2022-10-13T18:46:43.129Z,9.75
2022-10-13T18:49:14.826Z,16.20
2022-10-13T18:51:43.216Z,10.25
2022-10-13T18:54:10.923Z,9.82
2022-10-13T18:56:37.974Z,10.68
2022-10-13T18:59:06.782Z,8.45
2022-10-13T19:01:35.502Z,9.75
2022-10-13T19:04:02.961Z,8.95
2022-10-13T19:06:32.100Z,9.15
2022-10-13T19:09:01.150Z,10.57
2022-10-13T19:11:29.113Z,8.60
2022-10-13T19:13:55.957Z,10.25
2022-10-13T19:16:24.716Z,8.57
2022-10-13T19:18:52.208Z,9.90
2022-10-13T19:21:20.813Z,8.60
2022-10-13T19:23:48.124Z,8.73
2022-10-13T19:26:26.892Z,9.15
2022-10-13T19:28:56.334Z,10.50
2022-10-13T19:31:25.232Z,9.18
2022-10-13T19:33:52.951Z,8.15
2022-10-13T19:36:44.212Z,9.02
2022-10-13T19:39:23.076Z,9.13
2022-10-13T19:41:51.470Z,8.00
2022-10-13T19:46:47.187Z,9.48
2022-10-13T19:51:45.711Z,9.70
2022-10-13T19:54:13.305Z,9.68
2022-10-13T19:56:44.917Z,13.55
2022-10-13T19:59:11.701Z,12.57
2022-10-13T20:01:40.918Z,18.52
2022-10-13T20:04:13.141Z,14.07
2022-10-13T20:06:41.301Z,14.35
2022-10-13T20:09:08.497Z,14.95
2022-10-13T20:11:35.362Z,14.57
2022-10-13T20:14:02.139Z,15.30
2022-10-13T20:16:29.142Z,14.23
2022-10-13T20:18:58.551Z,15.70
2022-10-13T20:21:27.106Z,15.30
2022-10-13T20:23:54.274Z,14.75
2022-10-13T20:26:21.730Z,15.90
2022-10-13T20:28:49.736Z,16.80
2022-10-13T20:31:18.826Z,18.50
2022-10-13T20:33:46.898Z,16.40
2022-10-13T20:36:16.067Z,15.70
2022-10-13T20:38:42.993Z,17.58
2022-10-13T20:41:17.738Z,17.80
2022-10-13T20:43:45.854Z,16.83
2022-10-13T20:46:13.141Z,18.38
2022-10-13T20:49:08.791Z,18.92
2022-10-13T20:51:28.021Z,17.48
2022-10-13T20:53:54.878Z,15.95
2022-10-13T20:56:24.589Z,18.27
2022-10-13T20:58:51.978Z,18.77
2022-10-13T21:01:20.929Z,17.15
2022-10-13T21:03:52.516Z,18.67
2022-10-13T21:06:19.561Z,19.85
2022-10-13T21:08:47.183Z,19.95
2022-10-13T21:11:15.818Z,20.30
2022-10-13T21:13:44.293Z,21.63
2022-10-13T21:16:15.081Z,19.42
2022-10-13T21:18:47.813Z,20.17
2022-10-13T21:21:16.402Z,20.55
2022-10-13T21:23:43.921Z,19.75
2022-10-13T21:26:13.583Z,21.17
2022-10-13T21:28:42.015Z,22.60
2022-10-13T21:31:13.731Z,21.95
2022-10-13T21:33:41.701Z,22.23
2022-10-13T21:36:14.202Z,23.20
2022-10-13T21:38:41.701Z,22.65
2022-10-13T21:41:10.252Z,20.27
2022-10-13T21:43:36.984Z,20.27
2022-10-13T21:46:20.634Z,19.60
2022-10-13T21:48:55.030Z,20.73
2022-10-13T21:51:29.221Z,20.02
2022-10-13T21:53:58.226Z,20.42
2022-10-13T21:56:26.197Z,19.90
2022-10-13T21:58:53.902Z,19.77
2022-10-13T22:01:21.394Z,19.60
2022-10-13T22:03:51.998Z,19.05
2022-10-13T22:06:19.951Z,19.10
2022-10-13T22:08:49.876Z,18.90
2022-10-13T22:11:25.551Z,19.98
2022-10-13T22:13:52.574Z,19.63
2022-10-13T22:16:25.568Z,18.42
2022-10-13T22:18:54.801Z,18.25
2022-10-13T22:21:24.440Z,19.38
2022-10-13T22:23:51.168Z,19.35
2022-10-13T22:26:18.947Z,19.45
2022-10-13T22:28:48.153Z,19.80
2022-10-13T22:31:15.193Z,16.42
2022-10-13T22:33:43.181Z,19.63
2022-10-13T22:36:17.052Z,19.30
2022-10-13T22:38:45.505Z,19.67
2022-10-13T22:43:46.575Z,20.77
2022-10-13T22:46:16.180Z,20.70
2022-10-13T22:48:43.644Z,18.75
2022-10-13T22:51:14.034Z,19.17
2022-10-13T22:53:40.909Z,18.92
2022-10-13T22:56:09.869Z,20.27
2022-10-13T22:58:37.036Z,19.63
2022-10-13T23:01:08.803Z,19.65
2022-10-13T23:03:36.521Z,18.92
2022-10-13T23:06:03.946Z,18.30
2022-10-13T23:08:31.106Z,19.08
2022-10-13T23:10:57.974Z,20.55
2022-10-13T23:13:24.999Z,20.90
2022-10-13T23:15:52.730Z,22.45
2022-10-13T23:18:24.510Z,18.73
2022-10-13T23:20:56.543Z,20.70
2022-10-13T23:23:25.817Z,19.73
2022-10-13T23:25:52.605Z,21.05
2022-10-13T23:28:19.409Z,20.98
2022-10-13T23:30:46.141Z,20.38
2022-10-13T23:33:12.892Z,24.63
2022-10-13T23:35:39.792Z,22.52
2022-10-13T23:38:06.559Z,19.10
2022-10-13T23:40:34.832Z,22.50
2022-10-13T23:43:02.075Z,20.08
2022-10-13T23:45:29.221Z,19.88
2022-10-13T23:47:55.919Z,19.65
2022-10-13T23:50:23.389Z,20.35
2022-10-13T23:52:50.111Z,19.52
2022-10-13T23:55:17.833Z,18.38
2022-10-13T23:57:44.547Z,21.80
